Hlavní strana
METAR-TAF:

METAR-TAF

Letiště :

Mackall Army Airfield

Camp Mackall, Severní Karolína, Spojené státy americké

zeměpisná šířka: 35-02N, zeměpisná délka: 079-30W, výška: 115 m

Aktuální stav počasí

Zpráva byla vytvořena před 32 minutami, v 12:56 UTC
Východojihovýchodní vítr 5 kt
Teplota 21°C
Vlhkost vzduchu 83%
Tlak 1021 hPa
Viditelnost: 16.1 km
Oblačno až skoro zataženo ve výšce 1200 ft
Oblačno až skoro zataženo ve výšce 19000 ft

METAR: KHFF 261256Z AUTO 11005KT 10SM BKN012 BKN190 21/18 A3015 RMK AO2 SLP223 T02080184 $

Čas: 09:28 (13:28 UTC)


TAF: chybějící

Stav a předpovědi počasí z více než 4 000 letišť (zprávy METAR a TAF).

Červené a žluté tečky na mapě představují dostupné meteorologické stanice.

Když kurzor umístíte na tečku, zobrazí se název stanice.

Pak kliknutím zobrazíte stav a předpověď počasí.

Chcete-li změnit mapu, kliknutím na zelené tlačítko se znaménkem +mapu přiblížíte, kliknutím na zelené tlačítko se znaménkem – mapu oddálíte a kliknutím na zelené šipky přejdete na sousední mapy.


METAR-TAF: